sensor_id;sensor_type;location;lat;lon;timestamp;temperature;humidity
43894;DHT22;29556;50.846;4.442;2022-07-04T00:01:59;17.00;80.60
43894;DHT22;29556;50.846;4.442;2022-07-04T00:04:48;16.90;80.70
43894;DHT22;29556;50.846;4.442;2022-07-04T00:10:43;17.00;81.40
43894;DHT22;29556;50.846;4.442;2022-07-04T00:13:14;16.90;81.60
43894;DHT22;29556;50.846;4.442;2022-07-04T00:29:10;16.80;81.20
43894;DHT22;29556;50.846;4.442;2022-07-04T00:32:35;16.60;81.20
43894;DHT22;29556;50.846;4.442;2022-07-04T00:38:52;16.60;80.80
43894;DHT22;29556;50.846;4.442;2022-07-04T00:45:12;16.50;81.30
43894;DHT22;29556;50.846;4.442;2022-07-04T00:48:14;16.40;81.60
43894;DHT22;29556;50.846;4.442;2022-07-04T00:51:34;16.50;81.30
43894;DHT22;29556;50.846;4.442;2022-07-04T01:10:28;16.20;81.60
43894;DHT22;29556;50.846;4.442;2022-07-04T02:26:32;15.80;82.90
43894;DHT22;29556;50.846;4.442;2022-07-04T02:29:44;15.80;82.90
43894;DHT22;29556;50.846;4.442;2022-07-04T02:32:23;15.80;82.90
43894;DHT22;29556;50.846;4.442;2022-07-04T02:35:07;15.80;83.10
43894;DHT22;29556;50.846;4.442;2022-07-04T02:38:03;15.70;83.10
43894;DHT22;29556;50.846;4.442;2022-07-04T02:41:12;15.60;82.90
43894;DHT22;29556;50.846;4.442;2022-07-04T02:44:03;15.70;82.90
43894;DHT22;29556;50.846;4.442;2022-07-04T02:47:05;15.70;83.30
43894;DHT22;29556;50.846;4.442;2022-07-04T02:49:59;15.70;83.10
43894;DHT22;29556;50.846;4.442;2022-07-04T02:55:41;15.60;83.20
43894;DHT22;29556;50.846;4.442;2022-07-04T02:58:19;15.60;83.10
43894;DHT22;29556;50.846;4.442;2022-07-04T03:01:00;15.60;83.30
43894;DHT22;29556;50.846;4.442;2022-07-04T03:04:04;15.60;83.50
43894;DHT22;29556;50.846;4.442;2022-07-04T03:06:45;15.60;83.30
43894;DHT22;29556;50.846;4.442;2022-07-04T03:15:47;15.50;82.80
43894;DHT22;29556;50.846;4.442;2022-07-04T03:18:19;15.50;83.30
43894;DHT22;29556;50.846;4.442;2022-07-04T03:21:20;15.50;83.50
43894;DHT22;29556;50.846;4.442;2022-07-04T03:24:00;15.40;83.30
43894;DHT22;29556;50.846;4.442;2022-07-04T03:26:48;15.50;83.50
43894;DHT22;29556;50.846;4.442;2022-07-04T03:29:22;15.40;83.30
43894;DHT22;29556;50.846;4.442;2022-07-04T03:32:11;15.40;83.60
43894;DHT22;29556;50.846;4.442;2022-07-04T03:34:55;15.40;83.30
43894;DHT22;29556;50.846;4.442;2022-07-04T03:37:29;15.40;83.70
43894;DHT22;29556;50.846;4.442;2022-07-04T03:40:02;15.40;83.70
43894;DHT22;29556;50.846;4.442;2022-07-04T03:42:35;15.40;83.80
43894;DHT22;29556;50.846;4.442;2022-07-04T03:45:15;15.40;83.90
43894;DHT22;29556;50.846;4.442;2022-07-04T03:48:23;15.40;83.80
43894;DHT22;29556;50.846;4.442;2022-07-04T03:51:15;15.40;83.50
43894;DHT22;29556;50.846;4.442;2022-07-04T03:53:53;15.40;83.50
43894;DHT22;29556;50.846;4.442;2022-07-04T03:56:25;15.40;83.60
43894;DHT22;29556;50.846;4.442;2022-07-04T03:59:02;15.40;83.60
43894;DHT22;29556;50.846;4.442;2022-07-04T04:01:31;15.40;83.50
43894;DHT22;29556;50.846;4.442;2022-07-04T04:04:02;15.30;83.60
43894;DHT22;29556;50.846;4.442;2022-07-04T04:06:55;15.40;83.50
43894;DHT22;29556;50.846;4.442;2022-07-04T04:09:26;15.40;83.80
43894;DHT22;29556;50.846;4.442;2022-07-04T04:12:02;15.30;83.60
43894;DHT22;29556;50.846;4.442;2022-07-04T04:14:40;15.50;83.70
43894;DHT22;29556;50.846;4.442;2022-07-04T04:17:12;15.30;83.80
43894;DHT22;29556;50.846;4.442;2022-07-04T04:19:49;15.40;83.80
43894;DHT22;29556;50.846;4.442;2022-07-04T04:22:20;15.40;83.70
43894;DHT22;29556;50.846;4.442;2022-07-04T04:25:06;15.40;83.70
43894;DHT22;29556;50.846;4.442;2022-07-04T04:27:36;15.50;84.00
43894;DHT22;29556;50.846;4.442;2022-07-04T04:30:07;15.40;84.00
43894;DHT22;29556;50.846;4.442;2022-07-04T04:32:35;15.40;84.00
43894;DHT22;29556;50.846;4.442;2022-07-04T04:35:09;15.40;84.00
43894;DHT22;29556;50.846;4.442;2022-07-04T04:37:41;15.50;84.00
43894;DHT22;29556;50.846;4.442;2022-07-04T04:40:12;15.50;83.90
43894;DHT22;29556;50.846;4.442;2022-07-04T04:42:49;15.50;84.10
43894;DHT22;29556;50.846;4.442;2022-07-04T04:45:19;15.50;84.10
43894;DHT22;29556;50.846;4.442;2022-07-04T04:47:49;15.50;84.30
43894;DHT22;29556;50.846;4.442;2022-07-04T04:50:19;15.60;84.30
43894;DHT22;29556;50.846;4.442;2022-07-04T04:52:46;15.60;84.20
43894;DHT22;29556;50.846;4.442;2022-07-04T04:55:12;15.60;84.30
43894;DHT22;29556;50.846;4.442;2022-07-04T04:57:39;15.60;84.40
43894;DHT22;29556;50.846;4.442;2022-07-04T05:00:05;15.60;84.40
43894;DHT22;29556;50.846;4.442;2022-07-04T05:02:32;15.60;84.20
43894;DHT22;29556;50.846;4.442;2022-07-04T05:05:06;15.60;84.50
43894;DHT22;29556;50.846;4.442;2022-07-04T05:07:36;15.70;84.40
43894;DHT22;29556;50.846;4.442;2022-07-04T05:10:03;15.70;84.60
43894;DHT22;29556;50.846;4.442;2022-07-04T05:12:43;15.70;84.40
43894;DHT22;29556;50.846;4.442;2022-07-04T05:15:28;15.80;84.90
43894;DHT22;29556;50.846;4.442;2022-07-04T05:17:54;15.80;84.60
43894;DHT22;29556;50.846;4.442;2022-07-04T05:20:20;15.90;84.80
43894;DHT22;29556;50.846;4.442;2022-07-04T05:22:53;15.80;84.30
43894;DHT22;29556;50.846;4.442;2022-07-04T05:25:26;15.90;84.40
43894;DHT22;29556;50.846;4.442;2022-07-04T05:27:52;15.90;84.30
43894;DHT22;29556;50.846;4.442;2022-07-04T05:30:24;16.00;84.50
43894;DHT22;29556;50.846;4.442;2022-07-04T05:32:55;16.00;84.70
43894;DHT22;29556;50.846;4.442;2022-07-04T05:35:42;16.10;84.70
43894;DHT22;29556;50.846;4.442;2022-07-04T05:38:14;16.20;84.80
43894;DHT22;29556;50.846;4.442;2022-07-04T05:40:41;16.20;85.00
43894;DHT22;29556;50.846;4.442;2022-07-04T05:43:14;16.20;85.20
43894;DHT22;29556;50.846;4.442;2022-07-04T05:45:41;16.20;85.40
43894;DHT22;29556;50.846;4.442;2022-07-04T05:48:14;16.20;84.60
43894;DHT22;29556;50.846;4.442;2022-07-04T05:50:39;16.30;85.30
43894;DHT22;29556;50.846;4.442;2022-07-04T05:53:08;16.30;85.60
43894;DHT22;29556;50.846;4.442;2022-07-04T05:55:46;16.30;85.70
43894;DHT22;29556;50.846;4.442;2022-07-04T05:58:19;16.40;85.70
43894;DHT22;29556;50.846;4.442;2022-07-04T06:00:46;16.50;85.80
43894;DHT22;29556;50.846;4.442;2022-07-04T06:03:15;16.50;85.60
43894;DHT22;29556;50.846;4.442;2022-07-04T06:05:44;16.50;85.40
43894;DHT22;29556;50.846;4.442;2022-07-04T06:08:10;16.60;85.30
43894;DHT22;29556;50.846;4.442;2022-07-04T06:10:43;16.70;85.30
43894;DHT22;29556;50.846;4.442;2022-07-04T06:13:11;16.80;85.00
43894;DHT22;29556;50.846;4.442;2022-07-04T06:15:50;16.80;85.60
43894;DHT22;29556;50.846;4.442;2022-07-04T06:18:25;16.90;85.20
43894;DHT22;29556;50.846;4.442;2022-07-04T06:21:23;16.90;85.30
43894;DHT22;29556;50.846;4.442;2022-07-04T06:24:05;16.90;85.10
43894;DHT22;29556;50.846;4.442;2022-07-04T06:27:05;17.00;85.40
43894;DHT22;29556;50.846;4.442;2022-07-04T06:29:35;17.00;85.40
43894;DHT22;29556;50.846;4.442;2022-07-04T06:32:04;17.00;85.40
43894;DHT22;29556;50.846;4.442;2022-07-04T06:34:34;17.10;85.40
43894;DHT22;29556;50.846;4.442;2022-07-04T06:37:27;17.20;85.30
43894;DHT22;29556;50.846;4.442;2022-07-04T06:40:02;17.20;85.40
43894;DHT22;29556;50.846;4.442;2022-07-04T06:42:29;17.30;85.50
43894;DHT22;29556;50.846;4.442;2022-07-04T06:45:04;17.30;85.60
43894;DHT22;29556;50.846;4.442;2022-07-04T06:47:30;17.40;85.60
43894;DHT22;29556;50.846;4.442;2022-07-04T06:49:59;17.40;85.50
43894;DHT22;29556;50.846;4.442;2022-07-04T06:52:39;17.40;85.50
43894;DHT22;29556;50.846;4.442;2022-07-04T06:55:16;17.50;85.60
43894;DHT22;29556;50.846;4.442;2022-07-04T06:57:53;17.40;84.50
43894;DHT22;29556;50.846;4.442;2022-07-04T07:00:51;17.60;84.10
43894;DHT22;29556;50.846;4.442;2022-07-04T07:03:25;17.60;83.70
43894;DHT22;29556;50.846;4.442;2022-07-04T07:05:54;17.60;81.70
43894;DHT22;29556;50.846;4.442;2022-07-04T07:08:26;17.70;82.50
43894;DHT22;29556;50.846;4.442;2022-07-04T07:11:12;17.80;83.00
43894;DHT22;29556;50.846;4.442;2022-07-04T07:13:40;17.80;82.20
43894;DHT22;29556;50.846;4.442;2022-07-04T07:16:16;17.80;82.30
43894;DHT22;29556;50.846;4.442;2022-07-04T07:18:44;18.00;82.00
43894;DHT22;29556;50.846;4.442;2022-07-04T07:21:11;17.90;80.40
43894;DHT22;29556;50.846;4.442;2022-07-04T07:23:40;18.00;81.40
43894;DHT22;29556;50.846;4.442;2022-07-04T07:26:06;18.00;77.80
43894;DHT22;29556;50.846;4.442;2022-07-04T07:28:42;18.10;79.60
43894;DHT22;29556;50.846;4.442;2022-07-04T07:31:21;18.20;79.60
43894;DHT22;29556;50.846;4.442;2022-07-04T07:33:49;18.20;79.40
43894;DHT22;29556;50.846;4.442;2022-07-04T07:36:39;18.30;79.00
43894;DHT22;29556;50.846;4.442;2022-07-04T07:39:13;18.40;77.60
43894;DHT22;29556;50.846;4.442;2022-07-04T07:41:45;18.40;78.10
43894;DHT22;29556;50.846;4.442;2022-07-04T07:44:30;18.40;75.80
43894;DHT22;29556;50.846;4.442;2022-07-04T07:46:57;18.50;75.20
43894;DHT22;29556;50.846;4.442;2022-07-04T07:49:25;18.60;77.00
43894;DHT22;29556;50.846;4.442;2022-07-04T07:51:52;18.60;75.70
43894;DHT22;29556;50.846;4.442;2022-07-04T07:54:17;18.70;76.70
43894;DHT22;29556;50.846;4.442;2022-07-04T07:56:55;18.70;75.30
43894;DHT22;29556;50.846;4.442;2022-07-04T07:59:21;18.80;75.50
43894;DHT22;29556;50.846;4.442;2022-07-04T08:02:14;18.90;72.70
43894;DHT22;29556;50.846;4.442;2022-07-04T08:04:55;18.90;73.40
43894;DHT22;29556;50.846;4.442;2022-07-04T08:07:57;19.00;74.50
43894;DHT22;29556;50.846;4.442;2022-07-04T08:10:28;19.10;72.80
43894;DHT22;29556;50.846;4.442;2022-07-04T08:12:54;19.20;72.40
43894;DHT22;29556;50.846;4.442;2022-07-04T08:15:36;19.10;73.20
43894;DHT22;29556;50.846;4.442;2022-07-04T08:21:19;19.30;70.90
43894;DHT22;29556;50.846;4.442;2022-07-04T08:23:52;19.20;68.00
43894;DHT22;29556;50.846;4.442;2022-07-04T08:26:23;19.30;69.60
43894;DHT22;29556;50.846;4.442;2022-07-04T08:28:58;19.30;66.80
43894;DHT22;29556;50.846;4.442;2022-07-04T08:31:27;19.40;69.90
43894;DHT22;29556;50.846;4.442;2022-07-04T08:33:56;19.30;67.30
43894;DHT22;29556;50.846;4.442;2022-07-04T08:36:24;19.40;68.60
43894;DHT22;29556;50.846;4.442;2022-07-04T08:38:52;19.50;70.20
43894;DHT22;29556;50.846;4.442;2022-07-04T08:41:26;19.60;70.60
43894;DHT22;29556;50.846;4.442;2022-07-04T08:43:57;19.60;69.90
43894;DHT22;29556;50.846;4.442;2022-07-04T08:46:27;19.70;70.00
43894;DHT22;29556;50.846;4.442;2022-07-04T08:49:03;19.50;66.10
43894;DHT22;29556;50.846;4.442;2022-07-04T08:52:15;19.50;66.50
43894;DHT22;29556;50.846;4.442;2022-07-04T08:55:16;19.60;64.40
43894;DHT22;29556;50.846;4.442;2022-07-04T08:58:12;19.80;67.30
43894;DHT22;29556;50.846;4.442;2022-07-04T09:01:10;19.90;67.60
43894;DHT22;29556;50.846;4.442;2022-07-04T09:03:54;19.90;65.70
43894;DHT22;29556;50.846;4.442;2022-07-04T09:06:48;19.90;65.00
43894;DHT22;29556;50.846;4.442;2022-07-04T09:09:26;20.00;66.50
43894;DHT22;29556;50.846;4.442;2022-07-04T09:11:57;20.00;65.10
43894;DHT22;29556;50.846;4.442;2022-07-04T09:14:30;20.10;66.10
43894;DHT22;29556;50.846;4.442;2022-07-04T09:17:41;20.10;67.00
43894;DHT22;29556;50.846;4.442;2022-07-04T09:20:28;20.10;66.20
43894;DHT22;29556;50.846;4.442;2022-07-04T09:23:20;20.10;63.80
43894;DHT22;29556;50.846;4.442;2022-07-04T09:29:01;20.10;64.20
43894;DHT22;29556;50.846;4.442;2022-07-04T09:31:31;20.30;63.80
43894;DHT22;29556;50.846;4.442;2022-07-04T09:34:05;20.20;63.10
43894;DHT22;29556;50.846;4.442;2022-07-04T09:36:45;20.20;60.80
43894;DHT22;29556;50.846;4.442;2022-07-04T09:39:40;20.30;62.20
43894;DHT22;29556;50.846;4.442;2022-07-04T09:42:19;20.20;59.70
43894;DHT22;29556;50.846;4.442;2022-07-04T09:44:52;20.30;61.40
43894;DHT22;29556;50.846;4.442;2022-07-04T09:47:28;20.20;58.80
43894;DHT22;29556;50.846;4.442;2022-07-04T09:50:08;20.30;60.90
43894;DHT22;29556;50.846;4.442;2022-07-04T09:52:51;20.40;61.40
43894;DHT22;29556;50.846;4.442;2022-07-04T09:58:55;20.60;61.50
43894;DHT22;29556;50.846;4.442;2022-07-04T10:01:21;20.50;59.10
43894;DHT22;29556;50.846;4.442;2022-07-04T10:03:51;20.70;62.50
43894;DHT22;29556;50.846;4.442;2022-07-04T10:06:17;20.60;61.50
43894;DHT22;29556;50.846;4.442;2022-07-04T10:08:44;20.70;62.80
43894;DHT22;29556;50.846;4.442;2022-07-04T10:11:11;20.80;62.30
43894;DHT22;29556;50.846;4.442;2022-07-04T10:13:38;21.00;63.00
43894;DHT22;29556;50.846;4.442;2022-07-04T10:16:18;20.90;57.90
43894;DHT22;29556;50.846;4.442;2022-07-04T10:18:49;20.80;59.00
43894;DHT22;29556;50.846;4.442;2022-07-04T10:24:38;21.00;60.80
43894;DHT22;29556;50.846;4.442;2022-07-04T10:27:05;21.10;63.60
43894;DHT22;29556;50.846;4.442;2022-07-04T10:29:39;21.20;62.20
43894;DHT22;29556;50.846;4.442;2022-07-04T10:32:11;21.20;61.00
43894;DHT22;29556;50.846;4.442;2022-07-04T10:41:10;21.10;57.60
43894;DHT22;29556;50.846;4.442;2022-07-04T10:46:43;21.30;57.70
43894;DHT22;29556;50.846;4.442;2022-07-04T10:49:32;21.30;56.90
43894;DHT22;29556;50.846;4.442;2022-07-04T10:52:18;21.20;52.20
43894;DHT22;29556;50.846;4.442;2022-07-04T10:55:11;21.10;55.30
43894;DHT22;29556;50.846;4.442;2022-07-04T11:01:17;21.60;56.90
43894;DHT22;29556;50.846;4.442;2022-07-04T11:10:20;22.30;57.40
43894;DHT22;29556;50.846;4.442;2022-07-04T11:13:06;22.60;58.80
43894;DHT22;29556;50.846;4.442;2022-07-04T11:18:28;22.60;55.80
43894;DHT22;29556;50.846;4.442;2022-07-04T11:20:59;22.60;57.50
43894;DHT22;29556;50.846;4.442;2022-07-04T11:23:54;22.70;57.10
43894;DHT22;29556;50.846;4.442;2022-07-04T11:26:47;22.70;56.60
43894;DHT22;29556;50.846;4.442;2022-07-04T11:29:34;22.80;55.00
43894;DHT22;29556;50.846;4.442;2022-07-04T11:32:00;23.00;56.70
43894;DHT22;29556;50.846;4.442;2022-07-04T11:34:33;23.00;56.50
43894;DHT22;29556;50.846;4.442;2022-07-04T11:37:02;23.20;58.50
43894;DHT22;29556;50.846;4.442;2022-07-04T11:39:28;23.20;56.10
43894;DHT22;29556;50.846;4.442;2022-07-04T11:41:54;23.20;56.80
43894;DHT22;29556;50.846;4.442;2022-07-04T11:45:07;23.20;54.80
43894;DHT22;29556;50.846;4.442;2022-07-04T11:47:51;23.20;55.20
43894;DHT22;29556;50.846;4.442;2022-07-04T11:50:18;23.10;52.10
43894;DHT22;29556;50.846;4.442;2022-07-04T11:52:47;23.00;54.10
43894;DHT22;29556;50.846;4.442;2022-07-04T11:55:17;23.10;55.80
43894;DHT22;29556;50.846;4.442;2022-07-04T11:57:47;23.00;53.70
43894;DHT22;29556;50.846;4.442;2022-07-04T12:00:29;23.20;54.80
43894;DHT22;29556;50.846;4.442;2022-07-04T12:03:02;23.50;57.50
43894;DHT22;29556;50.846;4.442;2022-07-04T12:05:31;23.50;56.40
43894;DHT22;29556;50.846;4.442;2022-07-04T12:07:59;23.50;55.80
43894;DHT22;29556;50.846;4.442;2022-07-04T12:10:26;23.40;54.80
43894;DHT22;29556;50.846;4.442;2022-07-04T12:12:56;23.40;53.40
43894;DHT22;29556;50.846;4.442;2022-07-04T12:15:24;23.40;53.60
43894;DHT22;29556;50.846;4.442;2022-07-04T12:21:14;23.60;54.50
43894;DHT22;29556;50.846;4.442;2022-07-04T12:23:57;23.40;52.00
43894;DHT22;29556;50.846;4.442;2022-07-04T12:26:49;23.60;53.10
43894;DHT22;29556;50.846;4.442;2022-07-04T12:29:53;23.60;53.90
43894;DHT22;29556;50.846;4.442;2022-07-04T12:32:46;23.80;54.30
43894;DHT22;29556;50.846;4.442;2022-07-04T12:35:37;23.90;54.70
43894;DHT22;29556;50.846;4.442;2022-07-04T12:38:33;24.10;55.70
43894;DHT22;29556;50.846;4.442;2022-07-04T12:41:09;23.90;53.20
43894;DHT22;29556;50.846;4.442;2022-07-04T12:46:29;24.00;54.50
43894;DHT22;29556;50.846;4.442;2022-07-04T12:48:57;23.90;53.90
43894;DHT22;29556;50.846;4.442;2022-07-04T12:51:48;23.90;53.40
43894;DHT22;29556;50.846;4.442;2022-07-04T12:54:19;24.00;53.50
43894;DHT22;29556;50.846;4.442;2022-07-04T12:56:46;24.00;52.90
43894;DHT22;29556;50.846;4.442;2022-07-04T12:59:16;23.80;52.70
43894;DHT22;29556;50.846;4.442;2022-07-04T13:01:52;23.60;53.40
43894;DHT22;29556;50.846;4.442;2022-07-04T13:04:18;23.40;50.80
43894;DHT22;29556;50.846;4.442;2022-07-04T13:06:52;23.40;53.30
43894;DHT22;29556;50.846;4.442;2022-07-04T13:09:20;23.70;55.30
43894;DHT22;29556;50.846;4.442;2022-07-04T13:11:46;23.80;52.40
43894;DHT22;29556;50.846;4.442;2022-07-04T13:14:30;23.80;54.00
43894;DHT22;29556;50.846;4.442;2022-07-04T13:17:00;23.80;52.80
43894;DHT22;29556;50.846;4.442;2022-07-04T13:19:31;23.90;53.60
43894;DHT22;29556;50.846;4.442;2022-07-04T13:21:57;23.90;52.50
43894;DHT22;29556;50.846;4.442;2022-07-04T13:24:24;24.00;52.20
43894;DHT22;29556;50.846;4.442;2022-07-04T13:26:50;24.10;53.30
43894;DHT22;29556;50.846;4.442;2022-07-04T13:29:17;24.20;52.40
43894;DHT22;29556;50.846;4.442;2022-07-04T13:31:43;24.30;52.60
43894;DHT22;29556;50.846;4.442;2022-07-04T13:34:10;24.30;53.30
43894;DHT22;29556;50.846;4.442;2022-07-04T13:36:37;24.30;52.50
43894;DHT22;29556;50.846;4.442;2022-07-04T13:39:03;24.30;51.80
43894;DHT22;29556;50.846;4.442;2022-07-04T13:41:31;24.40;54.10
43894;DHT22;29556;50.846;4.442;2022-07-04T13:44:02;24.40;55.40
43894;DHT22;29556;50.846;4.442;2022-07-04T13:46:28;24.50;54.30
43894;DHT22;29556;50.846;4.442;2022-07-04T13:48:55;24.60;52.80
43894;DHT22;29556;50.846;4.442;2022-07-04T13:51:21;24.80;52.00
43894;DHT22;29556;50.846;4.442;2022-07-04T13:53:48;24.90;52.10
43894;DHT22;29556;50.846;4.442;2022-07-04T13:56:15;24.90;48.00
43894;DHT22;29556;50.846;4.442;2022-07-04T13:58:45;24.90;50.70
43894;DHT22;29556;50.846;4.442;2022-07-04T14:01:13;25.00;50.80
43894;DHT22;29556;50.846;4.442;2022-07-04T14:03:46;24.80;49.40
43894;DHT22;29556;50.846;4.442;2022-07-04T14:06:12;25.00;51.70
43894;DHT22;29556;50.846;4.442;2022-07-04T14:08:38;25.10;50.80
43894;DHT22;29556;50.846;4.442;2022-07-04T14:13:51;25.20;48.50
43894;DHT22;29556;50.846;4.442;2022-07-04T14:16:17;25.20;51.50
43894;DHT22;29556;50.846;4.442;2022-07-04T14:18:42;25.40;52.30
43894;DHT22;29556;50.846;4.442;2022-07-04T14:21:08;25.40;53.90
43894;DHT22;29556;50.846;4.442;2022-07-04T14:23:34;25.20;51.50
43894;DHT22;29556;50.846;4.442;2022-07-04T14:26:06;25.10;50.90
43894;DHT22;29556;50.846;4.442;2022-07-04T14:28:32;25.10;52.10
43894;DHT22;29556;50.846;4.442;2022-07-04T14:30:59;25.00;52.80
43894;DHT22;29556;50.846;4.442;2022-07-04T14:33:26;24.90;48.60
43894;DHT22;29556;50.846;4.442;2022-07-04T14:35:52;25.00;51.40
43894;DHT22;29556;50.846;4.442;2022-07-04T14:38:19;25.10;51.60
43894;DHT22;29556;50.846;4.442;2022-07-04T14:40:45;25.00;48.50
43894;DHT22;29556;50.846;4.442;2022-07-04T14:43:14;25.00;48.50
43894;DHT22;29556;50.846;4.442;2022-07-04T14:46:02;25.20;50.20
43894;DHT22;29556;50.846;4.442;2022-07-04T14:48:56;25.10;48.10
43894;DHT22;29556;50.846;4.442;2022-07-04T14:51:58;25.30;51.80
43894;DHT22;29556;50.846;4.442;2022-07-04T14:54:28;25.20;50.00
43894;DHT22;29556;50.846;4.442;2022-07-04T14:57:09;25.10;50.20
43894;DHT22;29556;50.846;4.442;2022-07-04T14:59:45;25.30;51.40
43894;DHT22;29556;50.846;4.442;2022-07-04T15:02:10;25.40;52.90
43894;DHT22;29556;50.846;4.442;2022-07-04T15:04:36;25.50;53.00
43894;DHT22;29556;50.846;4.442;2022-07-04T15:07:27;25.40;51.00
43894;DHT22;29556;50.846;4.442;2022-07-04T15:10:14;25.60;48.40
43894;DHT22;29556;50.846;4.442;2022-07-04T15:12:42;25.60;48.90
43894;DHT22;29556;50.846;4.442;2022-07-04T15:15:16;25.80;49.60
43894;DHT22;29556;50.846;4.442;2022-07-04T15:18:14;25.80;50.20
43894;DHT22;29556;50.846;4.442;2022-07-04T15:20:51;25.70;46.30
43894;DHT22;29556;50.846;4.442;2022-07-04T15:23:38;25.70;48.70
43894;DHT22;29556;50.846;4.442;2022-07-04T15:26:37;25.50;46.80
43894;DHT22;29556;50.846;4.442;2022-07-04T15:29:30;25.50;46.50
43894;DHT22;29556;50.846;4.442;2022-07-04T15:32:07;25.30;46.40
43894;DHT22;29556;50.846;4.442;2022-07-04T15:34:37;25.40;47.20
43894;DHT22;29556;50.846;4.442;2022-07-04T15:37:34;25.40;46.90
43894;DHT22;29556;50.846;4.442;2022-07-04T15:40:24;25.60;48.10
43894;DHT22;29556;50.846;4.442;2022-07-04T15:42:51;25.80;48.60
43894;DHT22;29556;50.846;4.442;2022-07-04T15:45:20;25.80;46.20
43894;DHT22;29556;50.846;4.442;2022-07-04T15:47:47;25.80;47.80
43894;DHT22;29556;50.846;4.442;2022-07-04T15:50:26;25.90;48.00
43894;DHT22;29556;50.846;4.442;2022-07-04T15:52:58;25.80;47.40
43894;DHT22;29556;50.846;4.442;2022-07-04T15:55:51;25.80;47.60
43894;DHT22;29556;50.846;4.442;2022-07-04T15:58:18;25.70;46.90
43894;DHT22;29556;50.846;4.442;2022-07-04T16:00:53;25.60;48.30
43894;DHT22;29556;50.846;4.442;2022-07-04T16:03:19;25.50;47.70
43894;DHT22;29556;50.846;4.442;2022-07-04T16:05:46;25.60;50.50
43894;DHT22;29556;50.846;4.442;2022-07-04T16:08:17;25.60;51.60
43894;DHT22;29556;50.846;4.442;2022-07-04T16:10:43;25.50;49.40
43894;DHT22;29556;50.846;4.442;2022-07-04T16:13:10;25.20;47.70
43894;DHT22;29556;50.846;4.442;2022-07-04T16:15:37;25.20;50.20
43894;DHT22;29556;50.846;4.442;2022-07-04T16:18:03;25.00;49.30
43894;DHT22;29556;50.846;4.442;2022-07-04T16:20:29;25.00;49.90
43894;DHT22;29556;50.846;4.442;2022-07-04T16:22:55;25.00;51.10
43894;DHT22;29556;50.846;4.442;2022-07-04T16:25:22;25.10;52.40
43894;DHT22;29556;50.846;4.442;2022-07-04T16:27:50;25.10;51.10
43894;DHT22;29556;50.846;4.442;2022-07-04T16:30:16;25.00;50.10
43894;DHT22;29556;50.846;4.442;2022-07-04T16:32:42;24.90;48.70
43894;DHT22;29556;50.846;4.442;2022-07-04T16:35:10;25.00;50.50
43894;DHT22;29556;50.846;4.442;2022-07-04T16:38:06;25.10;51.50
43894;DHT22;29556;50.846;4.442;2022-07-04T16:40:37;25.10;49.60
43894;DHT22;29556;50.846;4.442;2022-07-04T16:43:20;25.00;50.00
43894;DHT22;29556;50.846;4.442;2022-07-04T16:45:49;24.90;49.80
43894;DHT22;29556;50.846;4.442;2022-07-04T16:48:24;24.80;51.00
43894;DHT22;29556;50.846;4.442;2022-07-04T16:50:50;24.80;51.90
43894;DHT22;29556;50.846;4.442;2022-07-04T16:53:17;24.90;50.80
43894;DHT22;29556;50.846;4.442;2022-07-04T16:55:53;25.00;52.10
43894;DHT22;29556;50.846;4.442;2022-07-04T16:58:20;25.00;49.40
43894;DHT22;29556;50.846;4.442;2022-07-04T17:00:59;24.80;49.70
43894;DHT22;29556;50.846;4.442;2022-07-04T17:03:25;24.70;49.20
43894;DHT22;29556;50.846;4.442;2022-07-04T17:05:55;24.50;50.30
43894;DHT22;29556;50.846;4.442;2022-07-04T17:08:21;24.40;50.20
43894;DHT22;29556;50.846;4.442;2022-07-04T17:10:47;24.60;51.10
43894;DHT22;29556;50.846;4.442;2022-07-04T17:13:19;24.50;51.70
43894;DHT22;29556;50.846;4.442;2022-07-04T17:16:15;24.40;49.10
43894;DHT22;29556;50.846;4.442;2022-07-04T17:18:53;24.40;51.50
43894;DHT22;29556;50.846;4.442;2022-07-04T17:21:28;24.30;53.40
43894;DHT22;29556;50.846;4.442;2022-07-04T17:24:02;24.30;52.00
43894;DHT22;29556;50.846;4.442;2022-07-04T17:26:37;24.20;51.10
43894;DHT22;29556;50.846;4.442;2022-07-04T17:29:03;24.10;51.60
43894;DHT22;29556;50.846;4.442;2022-07-04T17:31:29;24.00;52.50
43894;DHT22;29556;50.846;4.442;2022-07-04T17:33:56;24.00;54.20
43894;DHT22;29556;50.846;4.442;2022-07-04T17:36:39;24.20;55.40
43894;DHT22;29556;50.846;4.442;2022-07-04T17:39:15;24.30;55.10
43894;DHT22;29556;50.846;4.442;2022-07-04T17:41:41;24.20;56.20
43894;DHT22;29556;50.846;4.442;2022-07-04T17:44:14;24.20;55.60
43894;DHT22;29556;50.846;4.442;2022-07-04T17:46:41;24.40;56.30
43894;DHT22;29556;50.846;4.442;2022-07-04T17:49:07;24.40;56.40
43894;DHT22;29556;50.846;4.442;2022-07-04T17:51:49;24.30;55.70
43894;DHT22;29556;50.846;4.442;2022-07-04T17:54:15;24.30;55.70
43894;DHT22;29556;50.846;4.442;2022-07-04T17:56:46;24.30;56.20
43894;DHT22;29556;50.846;4.442;2022-07-04T17:59:13;24.30;56.20
43894;DHT22;29556;50.846;4.442;2022-07-04T18:01:42;24.20;56.30
43894;DHT22;29556;50.846;4.442;2022-07-04T18:04:10;24.20;56.10
43894;DHT22;29556;50.846;4.442;2022-07-04T18:06:38;24.20;56.60
43894;DHT22;29556;50.846;4.442;2022-07-04T18:09:05;24.10;56.30
43894;DHT22;29556;50.846;4.442;2022-07-04T18:11:32;24.00;57.10
43894;DHT22;29556;50.846;4.442;2022-07-04T18:13:58;23.90;57.80
43894;DHT22;29556;50.846;4.442;2022-07-04T18:16:24;23.90;58.50
43894;DHT22;29556;50.846;4.442;2022-07-04T18:18:53;23.80;58.60
43894;DHT22;29556;50.846;4.442;2022-07-04T18:21:21;23.70;57.40
43894;DHT22;29556;50.846;4.442;2022-07-04T18:24:04;23.70;57.90
43894;DHT22;29556;50.846;4.442;2022-07-04T18:26:30;23.80;58.20
43894;DHT22;29556;50.846;4.442;2022-07-04T18:28:58;23.60;57.80
43894;DHT22;29556;50.846;4.442;2022-07-04T18:31:23;23.50;57.80
43894;DHT22;29556;50.846;4.442;2022-07-04T18:33:50;23.40;58.90
43894;DHT22;29556;50.846;4.442;2022-07-04T18:36:22;23.40;59.10
43894;DHT22;29556;50.846;4.442;2022-07-04T18:38:51;23.40;59.60
43894;DHT22;29556;50.846;4.442;2022-07-04T18:41:19;23.40;59.60
43894;DHT22;29556;50.846;4.442;2022-07-04T18:44:05;23.30;60.20
43894;DHT22;29556;50.846;4.442;2022-07-04T18:46:33;23.20;60.00
43894;DHT22;29556;50.846;4.442;2022-07-04T18:49:00;23.20;61.30
43894;DHT22;29556;50.846;4.442;2022-07-04T18:51:35;23.10;60.50
43894;DHT22;29556;50.846;4.442;2022-07-04T18:54:14;22.90;60.80
43894;DHT22;29556;50.846;4.442;2022-07-04T18:56:52;22.80;61.90
43894;DHT22;29556;50.846;4.442;2022-07-04T18:59:21;22.70;61.90
43894;DHT22;29556;50.846;4.442;2022-07-04T19:01:47;22.60;62.70
43894;DHT22;29556;50.846;4.442;2022-07-04T19:04:12;22.60;62.70
43894;DHT22;29556;50.846;4.442;2022-07-04T19:06:41;22.50;63.20
43894;DHT22;29556;50.846;4.442;2022-07-04T19:09:11;22.60;63.60